createdAt,value
2023-09-26T00:02:04.493Z,16.70
2023-09-26T00:04:33.276Z,16.70
2023-09-26T00:07:03.526Z,16.60
2023-09-26T00:09:31.561Z,16.80
2023-09-26T00:11:58.806Z,16.70
2023-09-26T00:14:25.928Z,16.60
2023-09-26T00:16:53.123Z,16.60
2023-09-26T00:19:20.259Z,16.60
2023-09-26T00:21:48.579Z,16.50
2023-09-26T00:24:16.291Z,16.60
2023-09-26T00:26:44.166Z,16.40
2023-09-26T00:29:11.481Z,16.60
2023-09-26T00:31:39.149Z,16.60
2023-09-26T00:34:06.397Z,16.60
2023-09-26T00:36:33.521Z,16.60
2023-09-26T00:39:01.163Z,16.50
2023-09-26T00:41:28.354Z,16.60
2023-09-26T00:43:55.465Z,16.50
2023-09-26T00:46:22.820Z,16.50
2023-09-26T00:48:50.130Z,16.60
2023-09-26T00:51:17.373Z,16.50
2023-09-26T00:53:44.704Z,16.70
2023-09-26T00:56:12.209Z,16.50
2023-09-26T00:58:41.448Z,16.50
2023-09-26T01:01:09.405Z,16.30
2023-09-26T01:03:37.067Z,16.50
2023-09-26T01:06:04.616Z,16.50
2023-09-26T01:08:32.296Z,16.50
2023-09-26T01:11:02.509Z,16.50
2023-09-26T01:13:29.692Z,16.50
2023-09-26T01:15:58.073Z,16.70
2023-09-26T01:18:25.568Z,16.40
2023-09-26T01:20:53.164Z,16.50
2023-09-26T01:23:24.338Z,16.40
2023-09-26T01:25:51.389Z,16.40
2023-09-26T01:28:18.756Z,16.50
2023-09-26T01:30:47.557Z,16.40
2023-09-26T01:33:17.778Z,16.50
2023-09-26T01:35:45.214Z,16.40
2023-09-26T01:38:12.956Z,16.70
2023-09-26T01:40:42.234Z,16.40
2023-09-26T01:43:09.863Z,16.50
2023-09-26T01:45:37.035Z,16.50
2023-09-26T01:48:06.951Z,16.40
2023-09-26T01:50:36.370Z,16.40
2023-09-26T01:53:05.194Z,16.40
2023-09-26T01:55:32.411Z,16.40
2023-09-26T01:57:59.492Z,16.40
2023-09-26T02:00:26.639Z,16.40
2023-09-26T02:02:54.795Z,16.40
2023-09-26T02:05:22.856Z,16.40
2023-09-26T02:07:50.581Z,16.30
2023-09-26T02:10:19.308Z,16.30
2023-09-26T02:12:50.227Z,16.30
2023-09-26T02:15:17.827Z,16.30
2023-09-26T02:17:45.471Z,16.20
2023-09-26T02:20:16.730Z,16.20
2023-09-26T02:22:49.322Z,16.20
2023-09-26T02:25:20.162Z,16.20
2023-09-26T02:27:49.444Z,16.20
2023-09-26T02:30:20.422Z,16.20
2023-09-26T02:32:47.896Z,16.10
2023-09-26T02:35:17.521Z,15.90
2023-09-26T02:37:45.144Z,16.10
2023-09-26T02:40:13.832Z,16.10
2023-09-26T02:42:45.375Z,16.00
2023-09-26T02:45:15.027Z,16.00
2023-09-26T02:47:44.056Z,16.00
2023-09-26T02:50:13.240Z,16.00
2023-09-26T02:52:44.040Z,16.00
2023-09-26T02:55:11.971Z,15.90
2023-09-26T02:57:39.371Z,15.90
2023-09-26T03:00:17.215Z,15.90
2023-09-26T03:02:47.183Z,15.90
2023-09-26T03:05:16.243Z,15.90
2023-09-26T03:07:44.167Z,15.80
2023-09-26T03:10:12.100Z,15.90
2023-09-26T03:12:44.591Z,15.90
2023-09-26T03:15:12.559Z,15.80
2023-09-26T03:17:40.740Z,15.80
2023-09-26T03:20:12.626Z,15.80
2023-09-26T03:22:39.743Z,15.80
2023-09-26T03:25:07.382Z,15.70
2023-09-26T03:27:34.638Z,15.80
2023-09-26T03:30:01.916Z,15.90
2023-09-26T03:32:29.698Z,15.70
2023-09-26T03:34:57.428Z,15.70
2023-09-26T03:37:25.906Z,15.70
2023-09-26T03:39:52.951Z,15.60
2023-09-26T03:42:20.237Z,15.60
2023-09-26T03:44:48.397Z,15.60
2023-09-26T03:47:15.537Z,15.90
2023-09-26T03:49:42.845Z,15.60
2023-09-26T03:52:10.539Z,15.70
2023-09-26T03:54:38.298Z,15.60
2023-09-26T03:57:05.913Z,15.60
2023-09-26T03:59:34.442Z,15.60
2023-09-26T04:02:01.938Z,15.60
2023-09-26T04:04:30.742Z,15.60
2023-09-26T04:06:58.411Z,15.50
2023-09-26T04:09:25.519Z,15.90
2023-09-26T04:11:52.872Z,15.60
2023-09-26T04:14:23.065Z,15.50
2023-09-26T04:16:50.463Z,15.50
2023-09-26T04:19:17.694Z,15.50
2023-09-26T04:21:45.246Z,15.50
2023-09-26T04:24:12.498Z,15.50
2023-09-26T04:26:39.632Z,15.40
2023-09-26T04:29:06.995Z,15.40
2023-09-26T04:31:34.115Z,15.40
2023-09-26T04:34:01.325Z,15.40
2023-09-26T04:36:30.918Z,15.40
2023-09-26T04:38:58.191Z,15.40
2023-09-26T04:41:25.645Z,15.40
2023-09-26T04:43:53.037Z,15.30
2023-09-26T04:46:20.357Z,15.40
2023-09-26T04:48:47.812Z,15.30
2023-09-26T04:51:15.786Z,15.30
2023-09-26T04:53:42.993Z,15.30
2023-09-26T04:56:10.392Z,15.30
2023-09-26T04:58:37.679Z,15.30
2023-09-26T05:01:16.657Z,15.30
2023-09-26T05:03:44.784Z,15.30
2023-09-26T05:06:13.070Z,15.40
2023-09-26T05:08:41.272Z,15.30
2023-09-26T05:11:13.599Z,15.30
2023-09-26T05:13:40.634Z,15.30
2023-09-26T05:16:12.022Z,15.20
2023-09-26T05:18:39.122Z,15.30
2023-09-26T05:21:07.604Z,15.30
2023-09-26T05:23:35.078Z,15.30
2023-09-26T05:26:11.093Z,15.30
2023-09-26T05:28:38.571Z,15.30
2023-09-26T05:31:06.767Z,15.30
2023-09-26T05:33:33.974Z,15.30
2023-09-26T05:36:01.083Z,15.50
2023-09-26T05:38:28.246Z,15.30
2023-09-26T05:40:55.608Z,15.40
2023-09-26T05:43:23.138Z,15.40
2023-09-26T05:45:52.413Z,15.40
2023-09-26T05:48:22.685Z,15.50
2023-09-26T05:50:49.884Z,15.50
2023-09-26T05:53:18.810Z,15.60
2023-09-26T05:55:45.688Z,15.60
2023-09-26T05:58:12.861Z,15.70
2023-09-26T06:00:40.290Z,15.80
2023-09-26T06:03:07.255Z,15.80
2023-09-26T06:05:37.688Z,15.90
2023-09-26T06:08:05.344Z,16.00
2023-09-26T06:10:32.360Z,16.10
2023-09-26T06:12:59.619Z,16.20
2023-09-26T06:15:26.741Z,16.30
2023-09-26T06:18:01.290Z,16.40
2023-09-26T06:20:29.356Z,16.40
2023-09-26T06:22:57.066Z,16.50
2023-09-26T06:25:24.226Z,16.60
2023-09-26T06:27:53.293Z,16.60
2023-09-26T06:30:20.577Z,16.80
2023-09-26T06:32:47.793Z,16.90
2023-09-26T06:35:15.955Z,17.10
2023-09-26T06:37:42.982Z,17.20
2023-09-26T06:40:11.810Z,17.50
2023-09-26T06:42:40.614Z,17.40
2023-09-26T06:45:09.616Z,17.60
2023-09-26T06:47:36.705Z,17.70
2023-09-26T06:50:04.226Z,17.80
2023-09-26T06:52:32.236Z,18.00
2023-09-26T06:54:59.387Z,18.00
2023-09-26T06:57:27.836Z,18.20
2023-09-26T06:59:57.036Z,18.30
2023-09-26T07:02:26.258Z,18.50
2023-09-26T07:04:56.321Z,18.60
2023-09-26T07:07:24.791Z,18.70
2023-09-26T07:09:51.864Z,18.90
2023-09-26T07:12:19.195Z,19.10
2023-09-26T07:14:46.337Z,19.20
2023-09-26T07:17:13.462Z,19.40
2023-09-26T07:19:40.488Z,19.60
2023-09-26T07:22:07.490Z,19.80
2023-09-26T07:24:48.788Z,19.80
2023-09-26T07:27:21.679Z,20.10
2023-09-26T07:29:48.920Z,20.30
2023-09-26T07:32:16.869Z,20.40
2023-09-26T07:34:44.413Z,20.60
2023-09-26T07:37:14.799Z,20.90
2023-09-26T07:39:48.160Z,21.10
2023-09-26T07:42:15.151Z,21.40
2023-09-26T07:44:42.151Z,21.60
2023-09-26T07:47:09.469Z,21.80
2023-09-26T07:49:36.503Z,22.00
2023-09-26T07:52:03.434Z,22.40
2023-09-26T07:54:32.126Z,22.60
2023-09-26T07:56:59.169Z,22.80
2023-09-26T07:59:26.064Z,23.20
2023-09-26T08:01:53.075Z,23.60
2023-09-26T08:04:20.577Z,24.00
2023-09-26T08:06:48.231Z,24.40
2023-09-26T08:09:16.364Z,24.80
2023-09-26T08:11:43.532Z,25.20
2023-09-26T08:14:10.542Z,25.60
2023-09-26T08:16:37.756Z,26.00
2023-09-26T08:19:04.832Z,26.30
2023-09-26T08:21:31.887Z,26.60
2023-09-26T08:23:58.983Z,26.90
2023-09-26T08:26:26.095Z,27.30
2023-09-26T08:28:53.157Z,27.60
2023-09-26T08:31:21.429Z,28.20
2023-09-26T08:33:51.003Z,28.70
2023-09-26T08:36:20.956Z,29.20
2023-09-26T08:38:51.129Z,29.80
2023-09-26T08:41:20.200Z,30.40
2023-09-26T08:43:48.268Z,30.90
2023-09-26T08:46:15.584Z,31.40
2023-09-26T08:48:44.977Z,31.80
2023-09-26T08:51:12.323Z,32.40
2023-09-26T08:53:39.668Z,32.80
2023-09-26T08:56:06.676Z,33.20
2023-09-26T08:58:34.698Z,33.40
2023-09-26T09:01:02.441Z,33.80
2023-09-26T09:03:29.812Z,33.80
2023-09-26T09:05:57.166Z,33.90
2023-09-26T09:08:24.501Z,34.10
2023-09-26T09:10:56.478Z,34.20
2023-09-26T09:13:44.528Z,34.20
2023-09-26T09:16:18.051Z,34.30
2023-09-26T09:18:48.736Z,34.50
2023-09-26T09:21:31.010Z,34.60
2023-09-26T09:24:03.571Z,34.80
2023-09-26T09:26:33.862Z,35.10
2023-09-26T09:29:24.366Z,35.20
2023-09-26T09:31:53.278Z,35.60
2023-09-26T09:34:23.225Z,35.90
2023-09-26T09:36:51.450Z,36.30
2023-09-26T09:39:23.728Z,36.70
2023-09-26T09:41:53.753Z,37.00
2023-09-26T09:44:20.746Z,37.40
2023-09-26T09:46:57.220Z,37.90
2023-09-26T09:49:32.759Z,38.20
2023-09-26T09:52:08.012Z,38.50
2023-09-26T09:54:42.671Z,38.90
2023-09-26T09:57:13.307Z,39.30
2023-09-26T09:59:40.874Z,39.70
2023-09-26T10:02:11.312Z,40.20
2023-09-26T10:04:39.299Z,40.50
2023-09-26T10:07:06.371Z,41.00
2023-09-26T10:09:35.466Z,41.40
2023-09-26T10:12:03.082Z,41.80
2023-09-26T10:14:33.692Z,42.30
2023-09-26T10:17:00.955Z,42.60
2023-09-26T10:19:47.767Z,42.90
2023-09-26T10:22:21.745Z,43.20
2023-09-26T10:24:53.787Z,43.30
2023-09-26T10:27:47.342Z,43.40
2023-09-26T10:30:21.384Z,43.50
2023-09-26T10:32:49.010Z,43.70
2023-09-26T10:38:24.393Z,44.30
2023-09-26T10:40:52.247Z,44.50
2023-09-26T10:43:43.184Z,44.80
2023-09-26T10:46:07.148Z,45.00
2023-09-26T10:48:35.796Z,45.20
2023-09-26T10:51:02.996Z,45.30
2023-09-26T10:53:30.011Z,45.30
2023-09-26T10:55:57.002Z,45.30
2023-09-26T10:58:24.215Z,45.30
2023-09-26T11:00:53.173Z,45.30
2023-09-26T11:03:20.891Z,45.30
2023-09-26T11:05:48.812Z,45.30
2023-09-26T11:11:03.354Z,45.20
2023-09-26T11:13:31.592Z,45.50
2023-09-26T11:15:58.886Z,45.60
2023-09-26T11:18:26.055Z,45.70
2023-09-26T11:21:02.384Z,45.90
2023-09-26T11:23:41.320Z,46.00
2023-09-26T11:26:09.758Z,46.40
2023-09-26T11:28:37.510Z,46.60
2023-09-26T11:31:05.412Z,46.70
2023-09-26T11:33:33.593Z,46.80
2023-09-26T11:36:02.449Z,46.80
2023-09-26T11:38:31.152Z,46.90
2023-09-26T11:40:58.500Z,47.00
2023-09-26T11:43:25.900Z,47.20
2023-09-26T11:46:04.430Z,47.20
2023-09-26T11:48:32.176Z,47.20
2023-09-26T11:51:00.786Z,47.20
2023-09-26T11:53:31.231Z,47.30
2023-09-26T11:55:59.484Z,47.50
2023-09-26T11:58:27.779Z,47.60
2023-09-26T12:00:54.887Z,47.70
2023-09-26T12:03:22.098Z,47.90
2023-09-26T12:05:50.189Z,48.10
2023-09-26T12:08:17.438Z,48.30
2023-09-26T12:10:44.565Z,48.30
2023-09-26T12:13:12.283Z,48.40
2023-09-26T12:15:40.018Z,48.50
2023-09-26T12:18:07.342Z,48.50
2023-09-26T12:20:35.280Z,48.40
2023-09-26T12:23:03.503Z,48.20
2023-09-26T12:25:31.301Z,48.20
2023-09-26T12:28:01.080Z,48.10
2023-09-26T12:30:28.735Z,48.00
2023-09-26T12:32:56.130Z,47.90
2023-09-26T12:35:23.391Z,48.00
2023-09-26T12:37:50.638Z,47.90
2023-09-26T12:40:17.840Z,47.80
2023-09-26T12:42:44.881Z,47.70
2023-09-26T12:45:12.481Z,47.60
2023-09-26T12:47:39.646Z,47.50
2023-09-26T12:50:11.078Z,47.30
2023-09-26T12:52:41.293Z,47.10
2023-09-26T12:55:10.360Z,46.90
2023-09-26T12:57:39.322Z,46.60
2023-09-26T13:00:11.522Z,46.40
2023-09-26T13:02:40.875Z,46.10
2023-09-26T13:05:09.329Z,46.00
2023-09-26T13:07:36.496Z,45.80
2023-09-26T13:10:04.071Z,45.80
2023-09-26T13:12:31.156Z,45.70
2023-09-26T13:14:58.348Z,45.70
2023-09-26T13:17:25.394Z,45.70
2023-09-26T13:19:52.886Z,45.50
2023-09-26T13:22:19.879Z,45.40
2023-09-26T13:24:46.925Z,45.20
2023-09-26T13:27:14.454Z,45.00
2023-09-26T13:29:41.499Z,44.90
2023-09-26T13:32:09.229Z,44.80
2023-09-26T13:34:40.165Z,44.60
2023-09-26T13:37:07.997Z,44.20
2023-09-26T13:39:35.480Z,43.70
2023-09-26T13:42:02.547Z,43.30
2023-09-26T13:44:29.471Z,42.90
2023-09-26T13:46:57.458Z,42.60
2023-09-26T13:49:25.058Z,42.20
2023-09-26T13:51:54.370Z,41.90
2023-09-26T13:54:21.378Z,41.50
2023-09-26T13:56:48.497Z,41.20
2023-09-26T13:59:15.587Z,40.70
2023-09-26T14:01:42.697Z,40.20
2023-09-26T14:04:10.072Z,39.70
2023-09-26T14:06:37.336Z,39.30
2023-09-26T14:09:05.673Z,39.00
2023-09-26T14:11:33.198Z,38.80
2023-09-26T14:14:00.331Z,38.70
2023-09-26T14:16:30.321Z,38.60
2023-09-26T14:19:00.367Z,38.40
2023-09-26T14:21:27.474Z,38.30
2023-09-26T14:23:55.609Z,38.30
2023-09-26T14:26:26.351Z,38.40
2023-09-26T14:28:55.624Z,38.30
2023-09-26T14:31:22.929Z,38.40
2023-09-26T14:33:50.017Z,38.40
2023-09-26T14:36:17.279Z,38.30
2023-09-26T14:38:44.268Z,38.30
2023-09-26T14:41:11.412Z,38.20
2023-09-26T14:43:40.120Z,38.00
2023-09-26T14:46:07.186Z,37.90
2023-09-26T14:48:34.148Z,37.80
2023-09-26T14:51:01.391Z,37.70
2023-09-26T14:53:28.417Z,37.40
2023-09-26T14:55:55.458Z,37.30
2023-09-26T14:58:22.508Z,37.20
2023-09-26T15:00:49.770Z,37.00
2023-09-26T15:03:18.177Z,36.90
2023-09-26T15:05:45.627Z,36.90
2023-09-26T15:08:12.876Z,36.80
2023-09-26T15:10:41.146Z,36.70
2023-09-26T15:13:09.646Z,36.70
2023-09-26T15:15:36.769Z,36.70
2023-09-26T15:18:04.343Z,36.60
2023-09-26T15:20:31.368Z,36.50
2023-09-26T15:22:59.630Z,36.40
2023-09-26T15:25:26.955Z,36.30
2023-09-26T15:27:54.125Z,36.20
2023-09-26T15:30:21.906Z,36.30
2023-09-26T15:32:49.450Z,36.00
2023-09-26T15:35:16.683Z,36.00
2023-09-26T15:37:43.885Z,35.90
2023-09-26T15:40:14.364Z,35.80
2023-09-26T15:42:41.764Z,35.60
2023-09-26T15:45:09.532Z,35.60
2023-09-26T15:47:37.020Z,35.50
2023-09-26T15:50:04.610Z,35.40
2023-09-26T15:52:31.634Z,35.30
2023-09-26T15:54:59.125Z,35.10
2023-09-26T15:57:26.086Z,35.20
2023-09-26T15:59:53.207Z,34.90
2023-09-26T16:02:20.270Z,34.90
2023-09-26T16:04:47.520Z,34.80
2023-09-26T16:07:14.522Z,34.60
2023-09-26T16:09:42.150Z,34.40
2023-09-26T16:12:09.410Z,34.10
2023-09-26T16:14:36.706Z,33.90
2023-09-26T16:17:06.122Z,33.60
2023-09-26T16:19:33.740Z,33.40
2023-09-26T16:22:01.421Z,33.10
2023-09-26T16:24:28.665Z,32.80
2023-09-26T16:26:56.000Z,32.50
2023-09-26T16:29:24.011Z,32.20
2023-09-26T16:31:51.460Z,31.90
2023-09-26T16:34:19.342Z,31.60
2023-09-26T16:36:47.172Z,31.30
2023-09-26T16:39:14.271Z,31.00
2023-09-26T16:41:41.708Z,30.80
2023-09-26T16:44:09.030Z,30.50
2023-09-26T16:46:36.342Z,30.20
2023-09-26T16:49:03.687Z,30.00
2023-09-26T16:51:31.266Z,29.70
2023-09-26T16:53:59.578Z,29.40
2023-09-26T16:56:27.196Z,29.20
2023-09-26T16:58:55.301Z,28.90
2023-09-26T17:01:24.722Z,28.70
2023-09-26T17:03:52.038Z,28.50
2023-09-26T17:06:19.277Z,28.50
2023-09-26T17:08:48.332Z,28.00
2023-09-26T17:11:20.187Z,27.80
2023-09-26T17:13:47.224Z,27.60
2023-09-26T17:16:14.472Z,27.40
2023-09-26T17:18:41.647Z,27.20
2023-09-26T17:21:10.985Z,27.00
2023-09-26T17:23:38.267Z,26.80
2023-09-26T17:26:05.798Z,26.90
2023-09-26T17:28:34.041Z,26.50
2023-09-26T17:31:01.296Z,26.30
2023-09-26T17:33:28.584Z,26.10
2023-09-26T17:35:55.892Z,26.00
2023-09-26T17:38:23.520Z,25.90
2023-09-26T17:40:56.908Z,25.80
2023-09-26T17:43:24.235Z,25.40
2023-09-26T17:45:51.371Z,25.40
2023-09-26T17:48:18.891Z,25.30
2023-09-26T17:50:46.113Z,25.20
2023-09-26T17:53:13.321Z,25.00
2023-09-26T17:55:40.547Z,24.90
2023-09-26T17:58:08.258Z,24.80
2023-09-26T18:00:35.357Z,24.70
2023-09-26T18:03:02.563Z,24.60
2023-09-26T18:05:29.622Z,24.50
2023-09-26T18:07:56.860Z,24.30
2023-09-26T18:10:24.782Z,24.20
2023-09-26T18:12:52.111Z,24.20
2023-09-26T18:15:19.734Z,24.00
2023-09-26T18:17:47.022Z,24.00
2023-09-26T18:20:14.466Z,23.80
2023-09-26T18:22:42.204Z,23.80
2023-09-26T18:25:10.248Z,23.70
2023-09-26T18:27:37.422Z,23.70
2023-09-26T18:30:05.097Z,23.60
2023-09-26T18:32:32.423Z,23.60
2023-09-26T18:34:59.792Z,23.40
2023-09-26T18:37:27.360Z,23.50
2023-09-26T18:39:54.538Z,23.40
2023-09-26T18:42:22.145Z,23.40
2023-09-26T18:44:49.346Z,23.60
2023-09-26T18:47:16.606Z,23.30
2023-09-26T18:49:44.026Z,23.30
2023-09-26T18:52:11.136Z,23.30
2023-09-26T18:54:38.459Z,23.30
2023-09-26T18:57:05.527Z,23.30
2023-09-26T18:59:37.591Z,23.30
2023-09-26T19:02:09.105Z,23.20
2023-09-26T19:04:38.323Z,23.20
2023-09-26T19:07:06.377Z,23.10
2023-09-26T19:09:36.445Z,23.20
2023-09-26T19:12:05.187Z,23.20
2023-09-26T19:14:32.468Z,23.10
2023-09-26T19:17:00.757Z,23.10
2023-09-26T19:19:28.616Z,23.10
2023-09-26T19:21:55.791Z,23.10
2023-09-26T19:24:22.917Z,23.00
2023-09-26T19:26:49.915Z,22.90
2023-09-26T19:29:17.929Z,22.90
2023-09-26T19:31:45.179Z,22.90
2023-09-26T19:34:12.510Z,22.80
2023-09-26T19:36:39.675Z,22.70
2023-09-26T19:39:07.021Z,22.60
2023-09-26T19:41:35.872Z,22.60
2023-09-26T19:44:03.574Z,22.50
2023-09-26T19:46:30.907Z,22.40
2023-09-26T19:48:59.013Z,22.40
2023-09-26T19:51:26.437Z,22.40
2023-09-26T19:53:53.748Z,22.60
2023-09-26T19:56:25.166Z,22.30
2023-09-26T19:58:52.725Z,22.20
2023-09-26T20:01:25.025Z,22.20
2023-09-26T20:03:54.244Z,22.20
2023-09-26T20:06:22.329Z,22.10
2023-09-26T20:08:49.358Z,22.00
2023-09-26T20:11:18.043Z,22.00
2023-09-26T20:13:45.349Z,22.00
2023-09-26T20:16:12.522Z,21.80
2023-09-26T20:18:40.565Z,22.20
2023-09-26T20:21:08.046Z,21.90
2023-09-26T20:23:35.312Z,21.80
2023-09-26T20:26:03.604Z,21.80
2023-09-26T20:28:30.745Z,21.70
2023-09-26T20:30:58.083Z,21.70
2023-09-26T20:33:25.756Z,21.70
2023-09-26T20:36:00.443Z,21.70
2023-09-26T20:38:28.285Z,21.60
2023-09-26T20:41:06.738Z,21.70
2023-09-26T20:43:34.004Z,21.60
2023-09-26T20:46:01.534Z,21.50
2023-09-26T20:48:29.697Z,21.50
2023-09-26T20:50:58.217Z,21.80
2023-09-26T20:53:25.414Z,21.50
2023-09-26T20:55:52.731Z,21.70
2023-09-26T20:58:20.039Z,21.10
2023-09-26T21:00:47.035Z,21.40
2023-09-26T21:03:16.826Z,21.30
2023-09-26T21:05:44.270Z,21.30
2023-09-26T21:08:11.394Z,21.30
2023-09-26T21:10:38.507Z,21.20
2023-09-26T21:13:05.793Z,21.20
2023-09-26T21:15:33.162Z,21.20
2023-09-26T21:18:00.233Z,21.10
2023-09-26T21:20:27.784Z,21.10
2023-09-26T21:22:55.075Z,21.10
2023-09-26T21:25:22.406Z,21.10
2023-09-26T21:27:50.033Z,21.00
2023-09-26T21:30:17.039Z,21.00
2023-09-26T21:32:44.360Z,20.90
2023-09-26T21:35:11.519Z,20.80
2023-09-26T21:37:38.793Z,20.80
2023-09-26T21:40:07.225Z,20.80
2023-09-26T21:42:34.739Z,20.80
2023-09-26T21:45:01.924Z,20.70
2023-09-26T21:47:29.648Z,20.70
2023-09-26T21:49:57.375Z,20.70
2023-09-26T21:52:24.592Z,20.60
2023-09-26T21:54:53.903Z,20.60
2023-09-26T21:57:21.104Z,20.60
2023-09-26T21:59:48.293Z,20.50
2023-09-26T22:02:16.812Z,20.40
2023-09-26T22:04:45.591Z,20.40
2023-09-26T22:07:15.415Z,20.30
2023-09-26T22:09:43.219Z,20.30
2023-09-26T22:12:10.492Z,20.30
2023-09-26T22:14:38.423Z,20.30
2023-09-26T22:17:06.401Z,20.50
2023-09-26T22:19:33.894Z,20.20
2023-09-26T22:22:00.882Z,20.20
2023-09-26T22:24:28.372Z,20.10
2023-09-26T22:26:56.423Z,20.10
2023-09-26T22:29:23.647Z,20.00
2023-09-26T22:31:51.504Z,20.00
2023-09-26T22:34:18.738Z,19.90
2023-09-26T22:36:45.790Z,19.90
2023-09-26T22:39:12.868Z,19.90
2023-09-26T22:41:40.216Z,19.90
2023-09-26T22:44:07.575Z,19.80
2023-09-26T22:46:34.839Z,19.70
2023-09-26T22:49:02.334Z,19.70
2023-09-26T22:51:29.760Z,19.70
2023-09-26T22:53:57.132Z,19.70
2023-09-26T22:56:24.920Z,19.60
2023-09-26T22:58:52.680Z,19.60
2023-09-26T23:01:20.009Z,19.60
2023-09-26T23:03:48.252Z,19.50
2023-09-26T23:06:15.697Z,19.50
2023-09-26T23:08:43.121Z,19.40
2023-09-26T23:11:10.556Z,19.40
2023-09-26T23:13:40.029Z,19.40
2023-09-26T23:16:08.140Z,19.30
2023-09-26T23:18:40.128Z,19.50
2023-09-26T23:21:07.715Z,19.40
2023-09-26T23:23:34.895Z,19.20
2023-09-26T23:26:02.044Z,19.20
2023-09-26T23:28:29.184Z,19.20
2023-09-26T23:30:57.282Z,19.20
2023-09-26T23:33:24.351Z,19.10
2023-09-26T23:35:52.095Z,18.90
2023-09-26T23:38:19.232Z,19.10
2023-09-26T23:40:46.609Z,19.00
2023-09-26T23:43:13.651Z,19.00
2023-09-26T23:45:41.147Z,19.00
2023-09-26T23:48:08.706Z,19.00
2023-09-26T23:50:36.132Z,18.90
2023-09-26T23:53:04.217Z,18.90
2023-09-26T23:55:31.415Z,18.90
2023-09-26T23:57:58.445Z,18.80
